sensor_id;sensor_type;location;lat;lon;timestamp;temperature;humidity
2387;DHT22;49473;50.772;8.768;2023-02-28T00:01:05;0.70;99.90
2387;DHT22;49473;50.772;8.768;2023-02-28T00:03:33;0.70;99.90
2387;DHT22;49473;50.772;8.768;2023-02-28T00:06:01;0.70;99.90
2387;DHT22;49473;50.772;8.768;2023-02-28T00:08:28;0.70;99.90
2387;DHT22;49473;50.772;8.768;2023-02-28T00:10:55;0.70;99.90
2387;DHT22;49473;50.772;8.768;2023-02-28T00:13:21;0.70;99.90
2387;DHT22;49473;50.772;8.768;2023-02-28T00:15:59;0.80;99.90
2387;DHT22;49473;50.772;8.768;2023-02-28T00:18:26;0.80;99.90
2387;DHT22;49473;50.772;8.768;2023-02-28T00:20:54;0.80;99.90
2387;DHT22;49473;50.772;8.768;2023-02-28T00:23:21;0.80;99.90
2387;DHT22;49473;50.772;8.768;2023-02-28T00:25:47;0.90;99.90
2387;DHT22;49473;50.772;8.768;2023-02-28T00:28:14;0.90;99.90
2387;DHT22;49473;50.772;8.768;2023-02-28T00:30:41;0.90;99.90
2387;DHT22;49473;50.772;8.768;2023-02-28T00:33:08;0.90;99.90
2387;DHT22;49473;50.772;8.768;2023-02-28T00:35:34;0.90;99.90
2387;DHT22;49473;50.772;8.768;2023-02-28T00:38:02;1.00;99.90
2387;DHT22;49473;50.772;8.768;2023-02-28T00:40:29;0.90;99.90
2387;DHT22;49473;50.772;8.768;2023-02-28T00:42:56;0.90;99.90
2387;DHT22;49473;50.772;8.768;2023-02-28T00:45:23;0.90;99.90
2387;DHT22;49473;50.772;8.768;2023-02-28T00:47:50;0.80;99.90
2387;DHT22;49473;50.772;8.768;2023-02-28T00:50:17;0.80;99.90
2387;DHT22;49473;50.772;8.768;2023-02-28T00:52:44;0.80;99.90
2387;DHT22;49473;50.772;8.768;2023-02-28T00:55:12;0.80;99.90
2387;DHT22;49473;50.772;8.768;2023-02-28T00:57:39;0.90;99.90
2387;DHT22;49473;50.772;8.768;2023-02-28T01:00:07;0.80;99.90
2387;DHT22;49473;50.772;8.768;2023-02-28T01:02:33;0.80;99.90
2387;DHT22;49473;50.772;8.768;2023-02-28T01:05:00;0.70;99.90
2387;DHT22;49473;50.772;8.768;2023-02-28T01:07:27;0.70;99.90
2387;DHT22;49473;50.772;8.768;2023-02-28T01:09:54;0.70;99.90
2387;DHT22;49473;50.772;8.768;2023-02-28T01:12:22;0.70;99.90
2387;DHT22;49473;50.772;8.768;2023-02-28T01:14:49;0.80;99.90
2387;DHT22;49473;50.772;8.768;2023-02-28T01:17:16;0.80;99.90
2387;DHT22;49473;50.772;8.768;2023-02-28T01:19:42;0.60;99.90
2387;DHT22;49473;50.772;8.768;2023-02-28T01:22:09;0.60;99.90
2387;DHT22;49473;50.772;8.768;2023-02-28T01:24:37;0.50;99.90
2387;DHT22;49473;50.772;8.768;2023-02-28T01:27:04;0.50;99.90
2387;DHT22;49473;50.772;8.768;2023-02-28T01:29:32;0.50;99.90
2387;DHT22;49473;50.772;8.768;2023-02-28T01:31:59;0.40;99.90
2387;DHT22;49473;50.772;8.768;2023-02-28T01:34:26;0.30;99.90
2387;DHT22;49473;50.772;8.768;2023-02-28T01:36:53;0.20;99.90
2387;DHT22;49473;50.772;8.768;2023-02-28T01:39:19;0.20;99.90
2387;DHT22;49473;50.772;8.768;2023-02-28T01:41:46;0.20;99.90
2387;DHT22;49473;50.772;8.768;2023-02-28T01:44:59;0.10;99.90
2387;DHT22;49473;50.772;8.768;2023-02-28T01:47:28;0.10;99.90
2387;DHT22;49473;50.772;8.768;2023-02-28T01:49:55;0.00;99.90
2387;DHT22;49473;50.772;8.768;2023-02-28T01:52:23;0.00;99.90
2387;DHT22;49473;50.772;8.768;2023-02-28T01:54:52;-0.20;99.90
2387;DHT22;49473;50.772;8.768;2023-02-28T01:57:22;-0.10;99.90
2387;DHT22;49473;50.772;8.768;2023-02-28T01:59:53;-0.10;99.90
2387;DHT22;49473;50.772;8.768;2023-02-28T02:02:23;-0.10;99.90
2387;DHT22;49473;50.772;8.768;2023-02-28T02:04:54;-0.10;99.90
2387;DHT22;49473;50.772;8.768;2023-02-28T02:07:22;-0.10;99.90
2387;DHT22;49473;50.772;8.768;2023-02-28T02:09:49;-0.20;99.90
2387;DHT22;49473;50.772;8.768;2023-02-28T02:12:26;-0.10;99.90
2387;DHT22;49473;50.772;8.768;2023-02-28T02:15:03;-0.10;99.90
2387;DHT22;49473;50.772;8.768;2023-02-28T02:17:40;-0.10;99.90
2387;DHT22;49473;50.772;8.768;2023-02-28T02:20:38;0.00;99.90
2387;DHT22;49473;50.772;8.768;2023-02-28T02:23:27;-0.10;99.90
2387;DHT22;49473;50.772;8.768;2023-02-28T02:25:58;-0.20;99.90
2387;DHT22;49473;50.772;8.768;2023-02-28T02:28:44;-0.20;99.90
2387;DHT22;49473;50.772;8.768;2023-02-28T02:31:27;-0.30;99.90
2387;DHT22;49473;50.772;8.768;2023-02-28T02:34:24;-0.20;99.90
2387;DHT22;49473;50.772;8.768;2023-02-28T02:37:01;-0.30;99.90
2387;DHT22;49473;50.772;8.768;2023-02-28T02:39:33;-0.30;99.90
2387;DHT22;49473;50.772;8.768;2023-02-28T02:42:05;-0.30;99.90
2387;DHT22;49473;50.772;8.768;2023-02-28T02:44:40;-0.30;99.90
2387;DHT22;49473;50.772;8.768;2023-02-28T02:47:12;-0.40;99.90
2387;DHT22;49473;50.772;8.768;2023-02-28T02:49:46;-0.40;99.90
2387;DHT22;49473;50.772;8.768;2023-02-28T02:52:18;-0.40;99.90
2387;DHT22;49473;50.772;8.768;2023-02-28T02:54:48;-0.40;99.90
2387;DHT22;49473;50.772;8.768;2023-02-28T02:57:20;-0.40;99.90
2387;DHT22;49473;50.772;8.768;2023-02-28T02:59:50;-0.40;99.90
2387;DHT22;49473;50.772;8.768;2023-02-28T03:02:19;-0.50;99.90
2387;DHT22;49473;50.772;8.768;2023-02-28T03:04:52;-0.50;99.90
2387;DHT22;49473;50.772;8.768;2023-02-28T03:07:19;-0.50;99.90
2387;DHT22;49473;50.772;8.768;2023-02-28T03:09:51;-0.50;99.90
2387;DHT22;49473;50.772;8.768;2023-02-28T03:12:18;-0.50;99.90
2387;DHT22;49473;50.772;8.768;2023-02-28T03:14:56;-0.50;99.90
2387;DHT22;49473;50.772;8.768;2023-02-28T03:17:50;-0.70;99.90
2387;DHT22;49473;50.772;8.768;2023-02-28T03:20:32;-0.70;99.90
2387;DHT22;49473;50.772;8.768;2023-02-28T03:23:13;-0.70;99.90
2387;DHT22;49473;50.772;8.768;2023-02-28T03:25:52;-0.60;99.90
2387;DHT22;49473;50.772;8.768;2023-02-28T03:28:27;-0.60;99.90
2387;DHT22;49473;50.772;8.768;2023-02-28T03:30:59;-0.70;99.90
2387;DHT22;49473;50.772;8.768;2023-02-28T03:33:31;-0.70;99.90
2387;DHT22;49473;50.772;8.768;2023-02-28T03:36:04;-0.80;99.90
2387;DHT22;49473;50.772;8.768;2023-02-28T03:38:34;-0.80;99.90
2387;DHT22;49473;50.772;8.768;2023-02-28T03:41:06;-0.80;99.90
2387;DHT22;49473;50.772;8.768;2023-02-28T03:43:38;-0.80;99.90
2387;DHT22;49473;50.772;8.768;2023-02-28T03:46:10;-0.80;99.90
2387;DHT22;49473;50.772;8.768;2023-02-28T03:48:42;-0.80;99.90
2387;DHT22;49473;50.772;8.768;2023-02-28T03:51:15;-0.80;99.90
2387;DHT22;49473;50.772;8.768;2023-02-28T03:53:47;-0.90;99.90
2387;DHT22;49473;50.772;8.768;2023-02-28T03:56:19;-0.80;99.90
2387;DHT22;49473;50.772;8.768;2023-02-28T03:58:51;-0.80;99.90
2387;DHT22;49473;50.772;8.768;2023-02-28T04:01:23;-0.80;99.90
2387;DHT22;49473;50.772;8.768;2023-02-28T04:03:51;-0.80;99.90
2387;DHT22;49473;50.772;8.768;2023-02-28T04:06:21;-0.80;99.90
2387;DHT22;49473;50.772;8.768;2023-02-28T04:08:48;-0.80;99.90
2387;DHT22;49473;50.772;8.768;2023-02-28T04:11:20;-0.90;99.90
2387;DHT22;49473;50.772;8.768;2023-02-28T04:13:47;-0.90;99.90
2387;DHT22;49473;50.772;8.768;2023-02-28T04:16:14;-0.90;99.90
2387;DHT22;49473;50.772;8.768;2023-02-28T04:18:41;-0.90;99.90
2387;DHT22;49473;50.772;8.768;2023-02-28T04:21:09;-0.90;99.90
2387;DHT22;49473;50.772;8.768;2023-02-28T04:23:37;-1.00;99.90
2387;DHT22;49473;50.772;8.768;2023-02-28T04:26:04;-0.90;99.90
2387;DHT22;49473;50.772;8.768;2023-02-28T04:28:32;-0.90;99.90
2387;DHT22;49473;50.772;8.768;2023-02-28T04:31:00;-0.90;99.90
2387;DHT22;49473;50.772;8.768;2023-02-28T04:33:30;-0.90;99.90
2387;DHT22;49473;50.772;8.768;2023-02-28T04:36:01;-0.90;99.90
2387;DHT22;49473;50.772;8.768;2023-02-28T04:38:29;-1.00;99.90
2387;DHT22;49473;50.772;8.768;2023-02-28T04:41:00;-1.00;99.90
2387;DHT22;49473;50.772;8.768;2023-02-28T04:43:28;-1.00;99.90
2387;DHT22;49473;50.772;8.768;2023-02-28T04:45:55;-1.00;99.90
2387;DHT22;49473;50.772;8.768;2023-02-28T04:48:22;-1.00;99.90
2387;DHT22;49473;50.772;8.768;2023-02-28T04:50:50;-1.00;99.90
2387;DHT22;49473;50.772;8.768;2023-02-28T04:53:17;-0.90;99.90
2387;DHT22;49473;50.772;8.768;2023-02-28T04:55:43;-0.90;99.90
2387;DHT22;49473;50.772;8.768;2023-02-28T04:58:11;-0.80;99.90
2387;DHT22;49473;50.772;8.768;2023-02-28T05:00:38;-0.80;99.90
2387;DHT22;49473;50.772;8.768;2023-02-28T05:03:05;-0.70;99.90
2387;DHT22;49473;50.772;8.768;2023-02-28T05:05:32;-0.60;99.90
2387;DHT22;49473;50.772;8.768;2023-02-28T05:07:59;-0.60;99.90
2387;DHT22;49473;50.772;8.768;2023-02-28T05:10:27;-0.60;99.90
2387;DHT22;49473;50.772;8.768;2023-02-28T05:12:54;-0.50;99.90
2387;DHT22;49473;50.772;8.768;2023-02-28T05:15:22;-0.60;99.90
2387;DHT22;49473;50.772;8.768;2023-02-28T05:17:50;-0.60;99.90
2387;DHT22;49473;50.772;8.768;2023-02-28T05:20:17;-0.50;99.90
2387;DHT22;49473;50.772;8.768;2023-02-28T05:22:43;-0.40;99.90
2387;DHT22;49473;50.772;8.768;2023-02-28T05:25:13;-0.40;99.90
2387;DHT22;49473;50.772;8.768;2023-02-28T05:27:41;-0.30;99.90
2387;DHT22;49473;50.772;8.768;2023-02-28T05:30:09;-0.30;99.90
2387;DHT22;49473;50.772;8.768;2023-02-28T05:32:38;-0.20;99.90
2387;DHT22;49473;50.772;8.768;2023-02-28T05:35:09;-0.20;99.90
2387;DHT22;49473;50.772;8.768;2023-02-28T05:37:36;-0.10;99.90
2387;DHT22;49473;50.772;8.768;2023-02-28T05:40:04;-0.10;99.90
2387;DHT22;49473;50.772;8.768;2023-02-28T05:42:32;0.00;99.90
2387;DHT22;49473;50.772;8.768;2023-02-28T05:44:59;0.00;99.90
2387;DHT22;49473;50.772;8.768;2023-02-28T05:47:26;0.10;99.90
2387;DHT22;49473;50.772;8.768;2023-02-28T05:49:54;0.10;99.90
2387;DHT22;49473;50.772;8.768;2023-02-28T05:52:21;0.20;99.90
2387;DHT22;49473;50.772;8.768;2023-02-28T05:54:47;0.20;99.90
2387;DHT22;49473;50.772;8.768;2023-02-28T05:57:15;0.20;99.90
2387;DHT22;49473;50.772;8.768;2023-02-28T05:59:41;0.20;99.90
2387;DHT22;49473;50.772;8.768;2023-02-28T06:02:11;0.20;99.90
2387;DHT22;49473;50.772;8.768;2023-02-28T06:04:38;0.20;99.90
2387;DHT22;49473;50.772;8.768;2023-02-28T06:07:07;0.30;99.90
2387;DHT22;49473;50.772;8.768;2023-02-28T06:09:35;0.30;99.90
2387;DHT22;49473;50.772;8.768;2023-02-28T06:12:03;0.30;99.90
2387;DHT22;49473;50.772;8.768;2023-02-28T06:14:31;0.20;99.90
2387;DHT22;49473;50.772;8.768;2023-02-28T06:16:59;0.30;99.90
2387;DHT22;49473;50.772;8.768;2023-02-28T06:19:26;0.30;99.90
2387;DHT22;49473;50.772;8.768;2023-02-28T06:21:53;0.30;99.90
2387;DHT22;49473;50.772;8.768;2023-02-28T06:24:22;0.30;99.90
2387;DHT22;49473;50.772;8.768;2023-02-28T06:26:50;0.30;99.90
2387;DHT22;49473;50.772;8.768;2023-02-28T06:29:17;0.40;99.90
2387;DHT22;49473;50.772;8.768;2023-02-28T06:31:44;0.40;99.90
2387;DHT22;49473;50.772;8.768;2023-02-28T06:34:11;0.40;99.90
2387;DHT22;49473;50.772;8.768;2023-02-28T06:36:38;0.40;99.90
2387;DHT22;49473;50.772;8.768;2023-02-28T06:39:05;0.40;99.90
2387;DHT22;49473;50.772;8.768;2023-02-28T06:41:35;0.30;99.90
2387;DHT22;49473;50.772;8.768;2023-02-28T06:44:03;0.40;99.90
2387;DHT22;49473;50.772;8.768;2023-02-28T06:46:31;0.40;99.90
2387;DHT22;49473;50.772;8.768;2023-02-28T06:48:58;0.50;99.90
2387;DHT22;49473;50.772;8.768;2023-02-28T06:51:24;0.50;99.90
2387;DHT22;49473;50.772;8.768;2023-02-28T06:53:52;0.50;99.90
2387;DHT22;49473;50.772;8.768;2023-02-28T06:56:20;0.60;99.90
2387;DHT22;49473;50.772;8.768;2023-02-28T06:58:49;0.60;99.90
2387;DHT22;49473;50.772;8.768;2023-02-28T07:01:16;0.60;99.90
2387;DHT22;49473;50.772;8.768;2023-02-28T07:03:44;0.70;99.90
2387;DHT22;49473;50.772;8.768;2023-02-28T07:06:11;0.70;99.90
2387;DHT22;49473;50.772;8.768;2023-02-28T07:08:38;0.70;99.90
2387;DHT22;49473;50.772;8.768;2023-02-28T07:11:05;0.70;99.90
2387;DHT22;49473;50.772;8.768;2023-02-28T07:13:32;0.70;99.90
2387;DHT22;49473;50.772;8.768;2023-02-28T07:16:03;0.70;99.90
2387;DHT22;49473;50.772;8.768;2023-02-28T07:18:30;0.90;99.90
2387;DHT22;49473;50.772;8.768;2023-02-28T07:20:57;0.90;99.90
2387;DHT22;49473;50.772;8.768;2023-02-28T07:23:24;1.00;99.90
2387;DHT22;49473;50.772;8.768;2023-02-28T07:25:51;1.30;99.90
2387;DHT22;49473;50.772;8.768;2023-02-28T07:28:18;1.60;99.90
2387;DHT22;49473;50.772;8.768;2023-02-28T07:30:45;1.90;99.90
2387;DHT22;49473;50.772;8.768;2023-02-28T07:33:14;2.30;99.90
2387;DHT22;49473;50.772;8.768;2023-02-28T07:35:41;2.60;99.90
2387;DHT22;49473;50.772;8.768;2023-02-28T07:38:08;2.90;99.90
2387;DHT22;49473;50.772;8.768;2023-02-28T07:40:35;2.90;99.90
2387;DHT22;49473;50.772;8.768;2023-02-28T07:43:03;2.80;99.90
2387;DHT22;49473;50.772;8.768;2023-02-28T07:45:30;2.60;99.90
2387;DHT22;49473;50.772;8.768;2023-02-28T07:48:00;2.40;99.90
2387;DHT22;49473;50.772;8.768;2023-02-28T07:50:28;2.40;99.90
2387;DHT22;49473;50.772;8.768;2023-02-28T07:52:56;2.40;99.90
2387;DHT22;49473;50.772;8.768;2023-02-28T07:55:23;2.30;99.90
2387;DHT22;49473;50.772;8.768;2023-02-28T07:57:49;2.20;99.90
2387;DHT22;49473;50.772;8.768;2023-02-28T08:00:17;2.20;99.90
2387;DHT22;49473;50.772;8.768;2023-02-28T08:02:44;2.40;99.90
2387;DHT22;49473;50.772;8.768;2023-02-28T08:05:11;2.50;99.90
2387;DHT22;49473;50.772;8.768;2023-02-28T08:07:39;2.60;99.90
2387;DHT22;49473;50.772;8.768;2023-02-28T08:10:07;3.00;99.90
2387;DHT22;49473;50.772;8.768;2023-02-28T08:12:35;2.60;99.90
2387;DHT22;49473;50.772;8.768;2023-02-28T08:15:02;2.30;99.90
2387;DHT22;49473;50.772;8.768;2023-02-28T08:17:29;2.20;99.90
2387;DHT22;49473;50.772;8.768;2023-02-28T08:19:55;2.10;99.90
2387;DHT22;49473;50.772;8.768;2023-02-28T08:22:22;2.40;99.90
2387;DHT22;49473;50.772;8.768;2023-02-28T08:24:50;2.50;99.90
2387;DHT22;49473;50.772;8.768;2023-02-28T08:27:17;2.50;99.90
2387;DHT22;49473;50.772;8.768;2023-02-28T08:29:43;2.60;99.90
2387;DHT22;49473;50.772;8.768;2023-02-28T08:32:10;2.60;99.90
2387;DHT22;49473;50.772;8.768;2023-02-28T08:34:39;2.40;99.90
2387;DHT22;49473;50.772;8.768;2023-02-28T08:37:06;2.40;99.90
2387;DHT22;49473;50.772;8.768;2023-02-28T08:39:34;2.30;99.90
2387;DHT22;49473;50.772;8.768;2023-02-28T08:42:02;2.50;99.90
2387;DHT22;49473;50.772;8.768;2023-02-28T08:44:29;2.40;99.90
2387;DHT22;49473;50.772;8.768;2023-02-28T08:46:55;2.20;99.90
2387;DHT22;49473;50.772;8.768;2023-02-28T08:49:22;2.10;99.90
2387;DHT22;49473;50.772;8.768;2023-02-28T08:51:49;2.10;99.90
2387;DHT22;49473;50.772;8.768;2023-02-28T08:54:16;2.30;99.90
2387;DHT22;49473;50.772;8.768;2023-02-28T08:56:45;2.40;99.90
2387;DHT22;49473;50.772;8.768;2023-02-28T08:59:13;2.20;99.90
2387;DHT22;49473;50.772;8.768;2023-02-28T09:01:40;2.30;99.90
2387;DHT22;49473;50.772;8.768;2023-02-28T09:04:09;2.50;99.90
2387;DHT22;49473;50.772;8.768;2023-02-28T09:06:37;3.30;99.90
2387;DHT22;49473;50.772;8.768;2023-02-28T09:09:04;4.40;99.60
2387;DHT22;49473;50.772;8.768;2023-02-28T09:11:33;4.30;98.00
2387;DHT22;49473;50.772;8.768;2023-02-28T09:13:59;4.30;98.00
2387;DHT22;49473;50.772;8.768;2023-02-28T09:16:30;4.60;98.50
2387;DHT22;49473;50.772;8.768;2023-02-28T09:18:57;4.20;96.70
2387;DHT22;49473;50.772;8.768;2023-02-28T09:21:24;4.40;97.90
2387;DHT22;49473;50.772;8.768;2023-02-28T09:23:51;3.90;97.70
2387;DHT22;49473;50.772;8.768;2023-02-28T09:26:19;3.80;97.30
2387;DHT22;49473;50.772;8.768;2023-02-28T09:28:48;3.90;96.60
2387;DHT22;49473;50.772;8.768;2023-02-28T09:31:16;4.80;98.30
2387;DHT22;49473;50.772;8.768;2023-02-28T09:33:47;5.10;95.70
2387;DHT22;49473;50.772;8.768;2023-02-28T09:36:14;4.50;94.80
2387;DHT22;49473;50.772;8.768;2023-02-28T09:38:41;3.50;95.10
2387;DHT22;49473;50.772;8.768;2023-02-28T09:41:12;3.10;98.00
2387;DHT22;49473;50.772;8.768;2023-02-28T09:43:43;4.10;97.30
2387;DHT22;49473;50.772;8.768;2023-02-28T09:46:18;4.40;96.40
2387;DHT22;49473;50.772;8.768;2023-02-28T09:48:51;4.30;97.20
2387;DHT22;49473;50.772;8.768;2023-02-28T09:51:30;4.00;96.70
2387;DHT22;49473;50.772;8.768;2023-02-28T09:53:59;3.80;98.30
2387;DHT22;49473;50.772;8.768;2023-02-28T09:56:31;4.30;97.50
2387;DHT22;49473;50.772;8.768;2023-02-28T09:59:02;6.00;98.30
2387;DHT22;49473;50.772;8.768;2023-02-28T10:01:36;8.10;95.00
2387;DHT22;49473;50.772;8.768;2023-02-28T10:04:10;8.40;91.40
2387;DHT22;49473;50.772;8.768;2023-02-28T10:06:46;10.00;89.00
2387;DHT22;49473;50.772;8.768;2023-02-28T10:09:16;11.10;84.70
2387;DHT22;49473;50.772;8.768;2023-02-28T10:11:46;11.60;73.60
2387;DHT22;49473;50.772;8.768;2023-02-28T10:14:16;9.60;72.90
2387;DHT22;49473;50.772;8.768;2023-02-28T10:16:46;8.20;72.30
2387;DHT22;49473;50.772;8.768;2023-02-28T10:19:21;9.20;74.60
2387;DHT22;49473;50.772;8.768;2023-02-28T10:21:53;11.20;73.20
2387;DHT22;49473;50.772;8.768;2023-02-28T10:24:26;12.70;67.50
2387;DHT22;49473;50.772;8.768;2023-02-28T10:27:00;12.60;61.30
2387;DHT22;49473;50.772;8.768;2023-02-28T10:29:27;12.90;60.90
2387;DHT22;49473;50.772;8.768;2023-02-28T10:31:55;11.90;58.30
2387;DHT22;49473;50.772;8.768;2023-02-28T10:34:24;13.30;60.50
2387;DHT22;49473;50.772;8.768;2023-02-28T10:36:51;15.30;58.80
2387;DHT22;49473;50.772;8.768;2023-02-28T10:39:38;16.60;57.00
2387;DHT22;49473;50.772;8.768;2023-02-28T10:42:20;14.10;50.20
2387;DHT22;49473;50.772;8.768;2023-02-28T10:44:47;11.70;54.50
2387;DHT22;49473;50.772;8.768;2023-02-28T10:47:15;12.40;57.30
2387;DHT22;49473;50.772;8.768;2023-02-28T10:49:49;13.30;57.70
2387;DHT22;49473;50.772;8.768;2023-02-28T10:52:33;13.60;54.70
2387;DHT22;49473;50.772;8.768;2023-02-28T10:55:19;14.70;52.30
2387;DHT22;49473;50.772;8.768;2023-02-28T10:57:46;13.10;51.40
2387;DHT22;49473;50.772;8.768;2023-02-28T11:00:16;12.00;53.20
2387;DHT22;49473;50.772;8.768;2023-02-28T11:02:44;11.60;55.20
2387;DHT22;49473;50.772;8.768;2023-02-28T11:05:28;12.70;55.10
2387;DHT22;49473;50.772;8.768;2023-02-28T11:07:58;14.30;56.20
2387;DHT22;49473;50.772;8.768;2023-02-28T11:10:29;15.70;53.10
2387;DHT22;49473;50.772;8.768;2023-02-28T11:12:58;14.10;50.80
2387;DHT22;49473;50.772;8.768;2023-02-28T11:15:26;11.50;52.50
2387;DHT22;49473;50.772;8.768;2023-02-28T11:17:54;12.50;56.80
2387;DHT22;49473;50.772;8.768;2023-02-28T11:20:26;12.90;55.60
2387;DHT22;49473;50.772;8.768;2023-02-28T11:22:54;13.00;53.40
2387;DHT22;49473;50.772;8.768;2023-02-28T11:25:24;11.50;53.20
2387;DHT22;49473;50.772;8.768;2023-02-28T11:27:54;11.30;54.50
2387;DHT22;49473;50.772;8.768;2023-02-28T11:30:27;10.60;54.80
2387;DHT22;49473;50.772;8.768;2023-02-28T11:32:56;10.20;55.70
2387;DHT22;49473;50.772;8.768;2023-02-28T11:35:28;10.90;58.60
2387;DHT22;49473;50.772;8.768;2023-02-28T11:37:57;9.30;57.60
2387;DHT22;49473;50.772;8.768;2023-02-28T11:40:30;7.80;59.70
2387;DHT22;49473;50.772;8.768;2023-02-28T11:43:10;6.90;61.30
2387;DHT22;49473;50.772;8.768;2023-02-28T11:45:55;5.90;62.80
2387;DHT22;49473;50.772;8.768;2023-02-28T11:48:30;5.60;65.70
2387;DHT22;49473;50.772;8.768;2023-02-28T11:51:10;7.20;65.80
2387;DHT22;49473;50.772;8.768;2023-02-28T11:56:39;6.90;63.70
2387;DHT22;49473;50.772;8.768;2023-02-28T11:59:35;6.50;64.20
2387;DHT22;49473;50.772;8.768;2023-02-28T12:02:17;5.80;66.00
2387;DHT22;49473;50.772;8.768;2023-02-28T12:04:53;5.70;68.90
2387;DHT22;49473;50.772;8.768;2023-02-28T12:07:31;6.30;70.30
2387;DHT22;49473;50.772;8.768;2023-02-28T12:10:06;5.90;68.00
2387;DHT22;49473;50.772;8.768;2023-02-28T12:12:43;6.00;70.10
2387;DHT22;49473;50.772;8.768;2023-02-28T12:18:13;6.20;70.30
2387;DHT22;49473;50.772;8.768;2023-02-28T12:20:49;6.50;68.50
2387;DHT22;49473;50.772;8.768;2023-02-28T12:23:32;6.30;66.80
2387;DHT22;49473;50.772;8.768;2023-02-28T12:26:09;6.80;68.10
2387;DHT22;49473;50.772;8.768;2023-02-28T12:28:42;6.30;66.10
2387;DHT22;49473;50.772;8.768;2023-02-28T12:31:16;6.30;65.90
2387;DHT22;49473;50.772;8.768;2023-02-28T12:33:47;7.40;66.80
2387;DHT22;49473;50.772;8.768;2023-02-28T12:36:18;9.20;64.30
2387;DHT22;49473;50.772;8.768;2023-02-28T12:38:51;10.70;59.50
2387;DHT22;49473;50.772;8.768;2023-02-28T12:41:24;10.80;57.50
2387;DHT22;49473;50.772;8.768;2023-02-28T12:44:00;11.20;58.50
2387;DHT22;49473;50.772;8.768;2023-02-28T12:46:30;12.40;56.20
2387;DHT22;49473;50.772;8.768;2023-02-28T12:49:04;12.00;54.50
2387;DHT22;49473;50.772;8.768;2023-02-28T12:51:32;11.50;55.40
2387;DHT22;49473;50.772;8.768;2023-02-28T12:54:10;12.30;55.60
2387;DHT22;49473;50.772;8.768;2023-02-28T12:56:44;12.80;54.60
2387;DHT22;49473;50.772;8.768;2023-02-28T12:59:18;12.10;54.00
2387;DHT22;49473;50.772;8.768;2023-02-28T13:02:10;12.70;55.40
2387;DHT22;49473;50.772;8.768;2023-02-28T13:05:01;14.60;54.40
2387;DHT22;49473;50.772;8.768;2023-02-28T13:07:45;15.00;53.50
2387;DHT22;49473;50.772;8.768;2023-02-28T13:10:17;12.60;52.60
2387;DHT22;49473;50.772;8.768;2023-02-28T13:12:49;12.10;52.70
2387;DHT22;49473;50.772;8.768;2023-02-28T13:15:19;12.50;55.80
2387;DHT22;49473;50.772;8.768;2023-02-28T13:17:51;13.80;53.70
2387;DHT22;49473;50.772;8.768;2023-02-28T13:20:20;13.20;52.30
2387;DHT22;49473;50.772;8.768;2023-02-28T13:22:49;12.70;53.40
2387;DHT22;49473;50.772;8.768;2023-02-28T13:25:53;12.70;53.40
2387;DHT22;49473;50.772;8.768;2023-02-28T13:34:34;8.70;57.20
2387;DHT22;49473;50.772;8.768;2023-02-28T13:37:32;7.70;60.90
2387;DHT22;49473;50.772;8.768;2023-02-28T13:40:27;7.10;61.80
2387;DHT22;49473;50.772;8.768;2023-02-28T13:42:55;6.20;62.60
2387;DHT22;49473;50.772;8.768;2023-02-28T13:45:27;5.80;64.90
2387;DHT22;49473;50.772;8.768;2023-02-28T13:47:59;5.70;65.80
2387;DHT22;49473;50.772;8.768;2023-02-28T13:50:33;5.50;66.00
2387;DHT22;49473;50.772;8.768;2023-02-28T13:53:40;5.20;66.50
2387;DHT22;49473;50.772;8.768;2023-02-28T13:56:34;5.00;67.70
2387;DHT22;49473;50.772;8.768;2023-02-28T13:59:17;5.10;68.80
2387;DHT22;49473;50.772;8.768;2023-02-28T14:02:00;5.00;71.20
2387;DHT22;49473;50.772;8.768;2023-02-28T14:04:59;4.80;69.90
2387;DHT22;49473;50.772;8.768;2023-02-28T14:07:29;4.90;71.90
2387;DHT22;49473;50.772;8.768;2023-02-28T14:10:02;4.80;73.60
2387;DHT22;49473;50.772;8.768;2023-02-28T14:12:51;4.70;74.70
2387;DHT22;49473;50.772;8.768;2023-02-28T14:15:38;4.70;74.20
2387;DHT22;49473;50.772;8.768;2023-02-28T14:18:14;4.70;72.70
2387;DHT22;49473;50.772;8.768;2023-02-28T14:20:42;4.80;72.00
2387;DHT22;49473;50.772;8.768;2023-02-28T14:23:15;4.80;74.00
2387;DHT22;49473;50.772;8.768;2023-02-28T14:25:48;4.80;74.10
2387;DHT22;49473;50.772;8.768;2023-02-28T14:28:31;4.80;74.00
2387;DHT22;49473;50.772;8.768;2023-02-28T14:31:07;4.80;73.90
2387;DHT22;49473;50.772;8.768;2023-02-28T14:33:57;4.60;74.60
2387;DHT22;49473;50.772;8.768;2023-02-28T14:36:27;4.60;75.40
2387;DHT22;49473;50.772;8.768;2023-02-28T14:38:58;4.60;76.80
2387;DHT22;49473;50.772;8.768;2023-02-28T14:41:30;4.50;75.80
2387;DHT22;49473;50.772;8.768;2023-02-28T14:43:58;4.40;78.30
2387;DHT22;49473;50.772;8.768;2023-02-28T14:46:33;4.40;77.60
2387;DHT22;49473;50.772;8.768;2023-02-28T14:49:01;4.50;78.00
2387;DHT22;49473;50.772;8.768;2023-02-28T14:51:30;4.50;79.30
2387;DHT22;49473;50.772;8.768;2023-02-28T14:53:59;4.50;79.20
2387;DHT22;49473;50.772;8.768;2023-02-28T14:56:30;4.60;79.80
2387;DHT22;49473;50.772;8.768;2023-02-28T14:58:59;4.70;79.70
2387;DHT22;49473;50.772;8.768;2023-02-28T15:01:27;4.50;77.00
2387;DHT22;49473;50.772;8.768;2023-02-28T15:04:01;4.50;77.90
2387;DHT22;49473;50.772;8.768;2023-02-28T15:06:29;4.40;78.10
2387;DHT22;49473;50.772;8.768;2023-02-28T15:09:10;4.40;77.50
2387;DHT22;49473;50.772;8.768;2023-02-28T15:11:39;4.40;78.10
2387;DHT22;49473;50.772;8.768;2023-02-28T15:14:06;4.30;78.00
2387;DHT22;49473;50.772;8.768;2023-02-28T15:16:37;4.40;80.90
2387;DHT22;49473;50.772;8.768;2023-02-28T15:19:07;4.40;81.00
2387;DHT22;49473;50.772;8.768;2023-02-28T15:21:40;4.40;81.60
2387;DHT22;49473;50.772;8.768;2023-02-28T15:24:13;4.50;82.10
2387;DHT22;49473;50.772;8.768;2023-02-28T15:26:43;4.60;81.90
2387;DHT22;49473;50.772;8.768;2023-02-28T15:29:15;4.60;81.00
2387;DHT22;49473;50.772;8.768;2023-02-28T15:31:46;4.50;82.20
2387;DHT22;49473;50.772;8.768;2023-02-28T15:34:18;4.40;82.70
2387;DHT22;49473;50.772;8.768;2023-02-28T15:36:47;4.40;82.00
2387;DHT22;49473;50.772;8.768;2023-02-28T15:39:22;4.40;82.60
2387;DHT22;49473;50.772;8.768;2023-02-28T15:41:49;4.30;84.60
2387;DHT22;49473;50.772;8.768;2023-02-28T15:44:27;4.30;82.90
2387;DHT22;49473;50.772;8.768;2023-02-28T15:46:59;4.40;84.20
2387;DHT22;49473;50.772;8.768;2023-02-28T15:49:28;4.50;85.20
2387;DHT22;49473;50.772;8.768;2023-02-28T15:51:58;4.80;85.10
2387;DHT22;49473;50.772;8.768;2023-02-28T15:54:29;5.40;83.70
2387;DHT22;49473;50.772;8.768;2023-02-28T15:56:58;5.70;81.70
2387;DHT22;49473;50.772;8.768;2023-02-28T15:59:28;5.80;80.80
2387;DHT22;49473;50.772;8.768;2023-02-28T16:02:14;5.90;79.70
2387;DHT22;49473;50.772;8.768;2023-02-28T16:04:58;5.70;79.70
2387;DHT22;49473;50.772;8.768;2023-02-28T16:07:26;5.20;80.70
2387;DHT22;49473;50.772;8.768;2023-02-28T16:09:53;4.70;80.80
2387;DHT22;49473;50.772;8.768;2023-02-28T16:12:21;4.70;81.60
2387;DHT22;49473;50.772;8.768;2023-02-28T16:14:52;4.50;82.80
2387;DHT22;49473;50.772;8.768;2023-02-28T16:17:23;4.40;84.00
2387;DHT22;49473;50.772;8.768;2023-02-28T16:19:50;4.30;85.80
2387;DHT22;49473;50.772;8.768;2023-02-28T16:22:17;4.20;84.90
2387;DHT22;49473;50.772;8.768;2023-02-28T16:24:44;4.10;85.70
2387;DHT22;49473;50.772;8.768;2023-02-28T16:27:17;3.90;86.50
2387;DHT22;49473;50.772;8.768;2023-02-28T16:29:44;3.80;87.50
2387;DHT22;49473;50.772;8.768;2023-02-28T16:32:12;3.70;88.30